Airfield :
LOGIN :

Register | Disclaimer

   EN    FR    IT 

 










Legend :    VFR   Marginal VFR   IFR   Intensive IFR   Very Intensive IFR
Visi :
Ceiling :
>= 8 km
>= 3000ft
5 to 8 km
1000 to 3000 ft
1500m to 5 km
500 to 1000 ft
800 to 1500m
200 to 500 ft
< 800m
< 200 ft
Symbols :   Thunderstorms  Fog  Heavy snow  Heavy precipitations  Wind > 20 kt
SIGMETs :     Misc.  Thunderstorms  Icing  Turbulence  Mountain Waves  Volcanic Ashes







- Airport Elevation : 274 ft
- IATA code : PUY


LDPL - Pula

CURRENT METAR :
  • 171130Z 07012KT CAVOK 08/M02 Q1017 NOSIG

EXPIRED METARs :
  • 171100Z 06011KT 030V080 CAVOK 09/M02 Q1017 NOSIG
  • 171030Z 06010KT CAVOK 08/M03 Q1017 NOSIG
  • 171000Z 06012KT 030V090 CAVOK 08/M00 Q1017 NOSIG
  • 170930Z 05011KT 020V070 CAVOK 08/M04 Q1017 NOSIG
  • 170900Z 04007KT 010V080 CAVOK 07/M03 Q1017 NOSIG

TAF TAF LDPL
Valid from the 17 at 12:00 until the 18 at 12:00 UTC


171125Z 1712/1812 06010KT CAVOK TX10/1712Z TNM01/1804Z
BECMG 1715/1717 VRB02KT
No reported NOTAMs for that airfield.



MET'MAP, your aeronautical weather chart ! - Copyright ORBIFLY December 2007 - Disclaimer

ORBIFLY MET'MAP TEAM :

Programming & Development : Alexandra Zaïnal
Concept & Development : Baudouin d'Aumeries
Co-Development & Prog : Marc-Olivier Méhu
Technical & hardware support : Manuel Goepfert

Contact : metmap@orbifly.com




SOURCES & CREDITS :

   NOAA